Mys Shmidta, Russia
Current Conditions -  °F | °C
As of 8:44 PM on Friday 24 Oct 2014 (Local Time) from PALU Reporting Station
Freezing Rain Freezing Rain  
Wind Chill: 16°   Ceiling: 2300
Heat Index: 30°   Visibility: 2.5mi
Dew Point: 25°   Wind: 28mph
Humidity: 80%   Direction: 170°S
Pressure: 29.48"   Gusts: 36mph
Location:  68.93°N, 179.5°W
Report Text: PALU 240844Z AUTO 17024G31KT 2 1/2SM -FZRA OVC023 M01/M04 A2948 RMK AO2 PK WND 16032/0804 SLP981
Loading
Personal Weather Stations






























Interactive Weather Map
Tropical Storm Tracking
New forecast layout! Learn more

10-Day Weather Forecast

Advertisements
Track Severe Weather on mobile